Time;durP1;ratioP1;P1;durP2;ratioP2;P2;SDS_P1;SDS_P2;PMS_P1;PMS_P2;Temp;Humidity;BMP_temperature;BMP_pressure;BME280_temperature;BME280_humidity;BME280_pressure;Samples;Min_cycle;Max_cycle;Signal;HPM_P1;HPM_P2
2022/04/11 00:02:09;;;;;;;;;;;;;;;;;;5053717;28;20352;-69
2022/04/11 00:04:35;;;;;;;;;;;;;;;;;;5052911;28;19909;-69
2022/04/11 00:07:01;;;;;;;;;;;;;;;;;;5053652;28;20315;-69
2022/04/11 00:09:27;;;;;;;;;;;;;;;;;;5053304;28;19942;-72
2022/04/11 00:11:53;;;;;;;;;;;;;;;;;;5053468;28;19909;-69
2022/04/11 00:14:19;;;;;;;;;;;;;;;;;;5053544;28;20371;-69
2022/04/11 00:16:45;;;;;;;;;;;;;;;;;;5052637;28;19936;-69
2022/04/11 00:19:11;;;;;;;;;;;;;;;;;;5053277;28;19920;-69
2022/04/11 00:21:37;;;;;;;;;;;;;;;;;;5052602;28;19913;-69
2022/04/11 00:24:03;;;;;;;;;;;;;;;;;;5053320;28;19909;-69
2022/04/11 00:26:28;;;;;;;;;;;;;;;;;;5052687;28;19909;-72
2022/04/11 00:28:54;;;;;;;;;;;;;;;;;;5053152;28;20430;-69
2022/04/11 00:31:20;;;;;;;;;;;6.90;1.00;;;;;;5053198;28;19916;-69
2022/04/11 00:33:45;;;;;;;;;;;6.80;1.00;;;;;;5052393;28;19909;-69
2022/04/11 00:36:11;;;;;;;;;;;6.80;1.00;;;;;;5053079;28;19908;-69
2022/04/11 00:38:37;;;;;;;;;;;;;;;;;;5051937;28;19929;-69
2022/04/11 00:41:03;;;;;;;;;;;;;;;;;;5053084;28;19908;-69
2022/04/11 00:43:29;;;;;;;;;;;;;;;;;;5052508;28;19978;-73
2022/04/11 00:45:54;;;;;;;;;;;;;;;;;;5052703;28;19991;-69
2022/04/11 00:48:20;;;;;;;;;;;;;;;;;;5052390;28;20315;-69
2022/04/11 00:50:46;;;;;;;;;;;7.00;1.00;;;;;;5052052;28;19909;-69
2022/04/11 00:53:12;;;;;;;;;;;7.00;1.00;;;;;;5052769;28;19957;-69
2022/04/11 00:55:38;;;;;;;;;;;;;;;;;;5051973;28;20003;-69
2022/04/11 00:58:04;;;;;;;;;;;;;;;;;;5052610;28;19913;-69
2022/04/11 01:00:30;;;;;;;;;;;;;;;;;;5052296;28;19999;-72
2022/04/11 01:02:56;;;;;;;;;;;;;;;;;;5052447;28;19908;-69
2022/04/11 01:05:22;;;;;;;;;;;;;;;;;;5052486;28;20361;-69
2022/04/11 01:07:48;;;;;;;;;;;;;;;;;;5051977;28;19917;-69
2022/04/11 01:10:14;;;;;;;;;;;;;;;;;;5052758;28;19909;-69
2022/04/11 01:12:41;;;;;;;;;;;;;;;;;;5051779;28;20090;-69
2022/04/11 01:15:07;;;;;;;;;;;;;;;;;;5052537;28;19999;-69
2022/04/11 01:17:33;;;;;;;;;;;;;;;;;;5051777;28;19952;-72
2022/04/11 01:19:59;;;;;;;;;;;;;;;;;;5052654;28;19909;-69
2022/04/11 01:22:24;;;;;;;;;;;;;;;;;;5034520;28;19916;-69
2022/04/11 01:24:50;;;;;;;;;;;;;;;;;;5051782;28;19905;-69
2022/04/11 01:27:16;;;;;;;;;;;;;;;;;;5052290;28;19996;-69
2022/04/11 01:29:42;;;;;;;;;;;;;;;;;;5051463;28;19915;-69
2022/04/11 01:32:08;;;;;;;;;;;7.10;1.00;;;;;;5052272;28;19909;-69
2022/04/11 01:34:34;;;;;;;;;;;;;;;;;;5051487;28;20357;-72
2022/04/11 01:36:59;;;;;;;;;;;;;;;;;;5051882;28;19921;-69
2022/04/11 01:39:26;;;;;;;;;;;;;;;;;;5052297;28;19940;-69
2022/04/11 01:41:51;;;;;;;;;;;6.90;1.00;;;;;;5051641;28;19905;-69
2022/04/11 01:44:18;;;;;;;;;;;6.80;1.00;;;;;;5052159;28;19909;-69
2022/04/11 01:46:46;;;;;;;;;;;6.90;1.00;;;;;;5051553;28;19908;-69
2022/04/11 01:49:12;;;;;;;;;;;;;;;;;;5052124;28;19909;-69
2022/04/11 01:51:37;;;;;;;;;;;;;;;;;;5051282;28;20327;-69
2022/04/11 01:54:03;;;;;;;;;;;;;;;;;;5051993;28;19915;-69
2022/04/11 01:56:29;;;;;;;;;;;6.90;1.00;;;;;;5052007;28;20258;-68
2022/04/11 01:58:55;;;;;;;;;;;;;;;;;;5051712;28;19935;-68
2022/04/11 02:01:21;;;;;;;;;;;;;;;;;;5056025;28;19909;-69
2022/04/11 02:03:46;;;;;;;;;;;;;;;;;;5055222;28;20250;-68
2022/04/11 02:06:12;;;;;;;;;;;;;;;;;;5055976;28;19999;-69
2022/04/11 02:08:38;;;;;;;;;;;;;;;;;;5055275;28;20030;-69
2022/04/11 02:11:04;;;;;;;;;;;;;;;;;;5056113;28;19958;-69
2022/04/11 02:13:30;;;;;;;;;;;;;;;;;;5055826;28;19913;-69
2022/04/11 02:15:56;;;;;;;;;;;;;;;;;;5054994;28;20427;-69
2022/04/11 02:18:22;;;;;;;;;;;;;;;;;;5055613;28;19913;-69
2022/04/11 02:20:47;;;;;;;;;;;7.00;1.00;;;;;;5054917;28;19909;-69
2022/04/11 02:23:13;;;;;;;;;;;6.70;1.00;;;;;;5055846;28;20353;-69
2022/04/11 02:25:40;;;;;;;;;;;;;;;;;;5054820;28;19909;-69
2022/04/11 02:28:06;;;;;;;;;;;;;;;;;;5055581;28;19916;-68
2022/04/11 02:30:31;;;;;;;;;;;;;;;;;;5055485;28;19909;-69
2022/04/11 02:32:58;;;;;;;;;;;;;;;;;;5054860;28;19936;-69
2022/04/11 02:35:24;;;;;;;;;;;;;;;;;;5055635;28;19944;-68
2022/04/11 02:37:50;;;;;;;;;;;;;;;;;;5054350;28;20034;-69
2022/04/11 02:40:16;;;;;;;;;;;;;;;;;;5055534;28;20376;-69
2022/04/11 02:42:42;;;;;;;;;;;;;;;;;;5054732;28;19995;-69
2022/04/11 02:45:08;;;;;;;;;;;;;;;;;;5055438;28;19986;-69
2022/04/11 02:47:34;;;;;;;;;;;;;;;;;;5055314;28;20383;-72
2022/04/11 02:49:59;;;;;;;;;;;6.50;1.00;;;;;;5054584;28;20323;-69
2022/04/11 02:52:25;;;;;;;;;;;;;;;;;;5055085;28;19948;-69
2022/04/11 02:54:51;;;;;;;;;;;;;;;;;;5054210;28;20120;-69
2022/04/11 02:57:17;;;;;;;;;;;;;;;;;;5054926;28;19917;-69
2022/04/11 02:59:43;;;;;;;;;;;;;;;;;;5054155;28;19963;-69
2022/04/11 03:02:08;;;;;;;;;;;6.40;3.20;;;;;;5054877;28;19909;-69
2022/04/11 03:04:34;;;;;;;;;;;6.20;1.70;;;;;;5036911;28;19994;-69
2022/04/11 03:07:00;;;;;;;;;;;;;;;;;;5054035;28;19917;-69
2022/04/11 03:09:26;;;;;;;;;;;;;;;;;;5054477;28;19934;-69
2022/04/11 03:11:52;;;;;;;;;;;;;;;;;;5053725;28;19948;-70
2022/04/11 03:14:17;;;;;;;;;;;;;;;;;;5054652;28;19913;-68
2022/04/11 03:16:43;;;;;;;;;;;;;;;;;;5053840;28;19909;-69
2022/04/11 03:19:09;;;;;;;;;;;;;;;;;;5054495;28;19913;-69
2022/04/11 03:21:35;;;;;;;;;;;6.30;7.40;;;;;;5054604;28;20439;-69
2022/04/11 03:24:01;;;;;;;;;;;6.30;3.00;;;;;;5053850;28;19916;-69
2022/04/11 03:26:26;;;;;;;;;;;6.30;3.80;;;;;;5054431;28;20399;-69
2022/04/11 03:28:52;;;;;;;;;;;6.30;3.80;;;;;;5053672;28;19912;-69
2022/04/11 03:31:18;;;;;;;;;;;;;;;;;;5054432;28;19915;-69
2022/04/11 03:33:43;;;;;;;;;;;;;;;;;;5053459;28;19909;-69
2022/04/11 03:36:09;;;;;;;;;;;;;;;;;;5054289;28;19908;-69
2022/04/11 03:38:35;;;;;;;;;;;;;;;;;;5053905;28;19925;-69
2022/04/11 03:41:01;;;;;;;;;;;;;;;;;;5053437;28;20003;-69
2022/04/11 03:43:27;;;;;;;;;;;;;;;;;;5054150;28;19917;-69
2022/04/11 03:45:53;;;;;;;;;;;;;;;;;;5053311;28;19909;-69
2022/04/11 03:48:19;;;;;;;;;;;;;;;;;;5054068;28;19916;-69
2022/04/11 03:50:45;;;;;;;;;;;;;;;;;;5053204;28;19916;-69
2022/04/11 03:53:11;;;;;;;;;;;;;;;;;;5054068;28;19952;-69
2022/04/11 03:55:37;;;;;;;;;;;;;;;;;;5053907;28;19994;-69
2022/04/11 03:58:02;;;;;;;;;;;6.10;4.20;;;;;;5052992;28;19913;-69
2022/04/11 04:00:28;;;;;;;;;;;6.00;2.30;;;;;;5053798;28;19915;-69
2022/04/11 04:02:53;;;;;;;;;;;5.90;5.20;;;;;;5053183;28;20349;-69
2022/04/11 04:05:19;;;;;;;;;;;5.70;3.10;;;;;;5053715;28;20277;-69
2022/04/11 04:07:44;;;;;;;;;;;5.60;5.00;;;;;;5052830;28;19917;-69
2022/04/11 04:10:10;;;;;;;;;;;;;;;;;;5053645;28;19908;-69
2022/04/11 04:12:36;;;;;;;;;;;;;;;;;;5053546;28;20324;-69
2022/04/11 04:15:02;;;;;;;;;;;;;;;;;;5052728;28;19950;-69
2022/04/11 04:17:28;;;;;;;;;;;;;;;;;;5053416;28;19952;-69
2022/04/11 04:19:55;;;;;;;;;;;;;;;;;;5052637;28;20268;-69
2022/04/11 04:22:21;;;;;;;;;;;;;;;;;;5052523;28;20030;-69
2022/04/11 04:24:47;;;;;;;;;;;;;;;;;;5052555;28;19909;-69
2022/04/11 04:27:13;;;;;;;;;;;;;;;;;;5053208;28;19915;-69
2022/04/11 04:29:38;;;;;;;;;;;;;;;;;;5053261;28;19959;-69
2022/04/11 04:32:04;;;;;;;;;;;;;;;;;;5052394;28;19955;-69
2022/04/11 04:34:30;;;;;;;;;;;;;;;;;;5053090;28;20353;-69
2022/04/11 04:36:58;;;;;;;;;;;;;;;;;;5052153;28;19924;-68
2022/04/11 04:39:24;;;;;;;;;;;;;;;;;;5053291;28;20276;-69
2022/04/11 04:41:49;;;;;;;;;;;;;;;;;;5052185;28;20012;-69
2022/04/11 04:44:15;;;;;;;;;;;;;;;;;;5044612;28;19916;-69
2022/04/11 04:46:41;;;;;;;;;;;;;;;;;;5052502;28;19939;-72
2022/04/11 04:49:07;;;;;;;;;;;;;;;;;;5052385;28;20447;-69
2022/04/11 04:51:33;;;;;;;;;;;;;;;;;;5052831;28;19909;-69
2022/04/11 04:53:59;;;;;;;;;;;;;;;;;;5052231;28;19908;-69
2022/04/11 04:56:26;;;;;;;;;;;;;;;;;;5052701;28;19999;-69
2022/04/11 04:58:52;;;;;;;;;;;;;;;;;;5052089;28;19912;-69
2022/04/11 05:01:17;;;;;;;;;;;;;;;;;;5038962;28;19962;-69
2022/04/11 05:03:43;;;;;;;;;;;;;;;;;;5032363;28;19913;-72
2022/04/11 05:06:09;;;;;;;;;;;;;;;;;;5049929;28;19948;-69
2022/04/11 05:08:35;;;;;;;;;;;;;;;;;;5052758;28;19917;-69
2022/04/11 05:11:01;;;;;;;;;;;;;;;;;;5051650;28;19909;-69
2022/04/11 05:13:27;;;;;;;;;;;;;;;;;;5052442;28;19920;-69
2022/04/11 05:15:53;;;;;;;;;;;;;;;;;;5050252;28;19908;-70
2022/04/11 05:18:19;;;;;;;;;;;;;;;;;;5044133;28;20007;-69
2022/04/11 05:20:45;;;;;;;;;;;;;;;;;;5032241;28;20277;-72
2022/04/11 05:23:11;;;;;;;;;;;;;;;;;;5031966;28;20357;-69
2022/04/11 05:25:36;;;;;;;;;;;;;;;;;;5032307;28;19917;-69
2022/04/11 05:28:02;;;;;;;;;;;;;;;;;;5031567;28;19909;-69
2022/04/11 05:30:33;;;;;;;;;;;;;;;;;;5032625;28;19943;-69
2022/04/11 05:32:59;;;;;;;;;;;;;;;;;;5043743;28;20452;-68
2022/04/11 05:35:25;;;;;;;;;;;;;;;;;;5052173;28;19968;-68
2022/04/11 05:37:51;;;;;;;;;;;;;;;;;;5051123;28;19925;-68
2022/04/11 05:40:17;;;;;;;;;;;;;;;;;;5052129;28;19913;-67
2022/04/11 05:42:43;;;;;;;;;;;;;;;;;;5048301;28;19916;-67
2022/04/11 05:45:09;;;;;;;;;;;;;;;;;;5031701;28;20365;-66
2022/04/11 05:47:35;;;;;;;;;;;;;;;;;;5032281;28;20361;-68
2022/04/11 05:50:01;;;;;;;;;;;;;;;;;;5041116;28;19920;-71
2022/04/11 05:52:26;;;;;;;;;;;;;;;;;;5052058;28;19909;-72
2022/04/11 05:54:52;;;;;;;;;;;;;;;;;;5051361;28;19974;-70
2022/04/11 05:57:18;;;;;;;;;;;;;;;;;;5045407;28;19928;-69
2022/04/11 05:59:44;;;;;;;;;;;;;;;;;;5038932;28;19975;-70
2022/04/11 06:02:10;;;;;;;;;;;;;;;;;;5051387;28;19912;-72
2022/04/11 06:04:37;;;;;;;;;;;;;;;;;;5051960;28;19940;-70
2022/04/11 06:07:03;;;;;;;;;;;;;;;;;;5051326;28;19916;-69
2022/04/11 06:09:29;;;;;;;;;;;;;;;;;;5051916;28;19963;-68
2022/04/11 06:11:55;;;;;;;;;;;;;;;;;;5051084;28;19913;-68
2022/04/11 06:14:20;;;;;;;;;;;;;;;;;;5047866;28;19936;-68
2022/04/11 06:16:46;;;;;;;;;;;;;;;;;;5041581;28;20429;-70
2022/04/11 06:19:13;;;;;;;;;;;;;;;;;;5049767;28;19943;-68
2022/04/11 06:21:38;;;;;;;;;;;;;;;;;;5050701;28;19958;-68
2022/04/11 06:24:04;;;;;;;;;;;;;;;;;;5049988;28;20369;-68
2022/04/11 06:26:30;;;;;;;;;;;;;;;;;;5050361;28;19909;-68
2022/04/11 06:28:56;;;;;;;;;;;;;;;;;;5049403;28;19909;-69
2022/04/11 06:31:22;;;;;;;;;;;;;;;;;;5050390;28;19959;-69
2022/04/11 06:33:48;;;;;;;;;;;;;;;;;;5050120;28;20383;-69
2022/04/11 06:36:14;;;;;;;;;;;;;;;;;;5050230;28;19952;-69
2022/04/11 06:38:40;;;;;;;;;;;;;;;;;;5051330;28;19968;-68
2022/04/11 06:41:06;;;;;;;;;;;;;;;;;;5050636;28;19908;-68
2022/04/11 06:43:32;;;;;;;;;;;;;;;;;;5051591;28;19944;-69
2022/04/11 06:45:57;;;;;;;;;;;;;;;;;;5052328;28;19912;-69
2022/04/11 06:48:23;;;;;;;;;;;;;;;;;;5054849;28;19909;-68
2022/04/11 06:50:50;;;;;;;;;;;;;;;;;;5054384;28;20353;-70
2022/04/11 06:53:16;;;;;;;;;;;;;;;;;;5054579;28;20354;-68
2022/04/11 06:55:42;;;;;;;;;;;;;;;;;;5054524;28;19908;-69
2022/04/11 06:58:08;;;;;;;;;;;;;;;;;;5053634;28;19952;-69
2022/04/11 07:00:34;;;;;;;;;;;;;;;;;;5054943;28;20375;-68
2022/04/11 07:03:00;;;;;;;;;;;;;;;;;;5036223;28;19912;-69
2022/04/11 07:05:26;;;;;;;;;;;;;;;;;;5054877;28;19910;-68
2022/04/11 07:07:52;;;;;;;;;;;;;;;;;;5054285;28;20372;-69
2022/04/11 07:10:18;;;;;;;;;;;;;;;;;;5054723;28;19954;-68
2022/04/11 07:12:44;;;;;;;;;;;;;;;;;;5054752;28;20007;-68
2022/04/11 07:15:10;;;;;;;;;;;;;;;;;;5053913;28;20511;-68
2022/04/11 07:17:36;;;;;;;;;;;;;;;;;;5054497;28;19913;-68
2022/04/11 07:20:02;;;;;;;;;;;;;;;;;;5053680;28;19916;-68
2022/04/11 07:22:28;;;;;;;;;;;;;;;;;;5054626;28;19913;-68
2022/04/11 07:24:53;;;;;;;;;;;;;;;;;;5053735;28;20397;-70
2022/04/11 07:27:19;;;;;;;;;;;;;;;;;;5054475;28;19909;-68
2022/04/11 07:29:45;;;;;;;;;;;;;;;;;;5054471;28;19912;-68
2022/04/11 07:32:11;;;;;;;;;;;;;;;;;;5053643;28;19911;-69
2022/04/11 07:34:37;;;;;;;;;;;;;;;;;;5054360;28;19909;-68
2022/04/11 07:37:03;;;;;;;;;;;;;;;;;;5053349;28;20431;-68
2022/04/11 07:39:29;;;;;;;;;;;;;;;;;;5054196;28;20376;-68
2022/04/11 07:41:55;;;;;;;;;;;;;;;;;;5053633;28;19920;-70
2022/04/11 07:44:21;;;;;;;;;;;;;;;;;;5054014;28;19909;-68
2022/04/11 07:46:47;;;;;;;;;;;;;;;;;;5054403;28;20273;-68
2022/04/11 07:49:13;;;;;;;;;;;;;;;;;;5053330;28;19905;-68
2022/04/11 07:51:38;;;;;;;;;;;;;;;;;;5054032;28;19909;-69
2022/04/11 07:54:04;;;;;;;;;;;;;;;;;;5053358;28;19908;-68
2022/04/11 07:56:30;;;;;;;;;;;;;;;;;;5053026;28;20320;-70
2022/04/11 07:58:56;;;;;;;;;;;;;;;;;;5050956;28;19971;-67
2022/04/11 08:01:22;;;;;;;;;;;;;;;;;;5055005;28;19948;-72
2022/04/11 08:03:48;;;;;;;;;;;;;;;;;;5055220;28;19913;-68
2022/04/11 08:06:14;;;;;;;;;;;;;;;;;;5054500;28;20000;-68
2022/04/11 08:08:47;;;;;;;;;;;;;;;;;;5053563;28;19923;-68
2022/04/11 08:11:13;;;;;;;;;;;;;;;;;;5050619;28;19911;-69
2022/04/11 08:13:39;;;;;;;;;;;;;;;;;;5052854;28;20284;-70
2022/04/11 08:16:05;;;;;;;;;;;;;;;;;;5052723;28;19935;-70
2022/04/11 08:18:31;;;;;;;;;;;;;;;;;;5053281;28;19951;-70
2022/04/11 08:20:57;;;;;;;;;;;;;;;;;;5052685;28;20004;-71
2022/04/11 08:23:23;;;;;;;;;;;;;;;;;;5053663;28;20242;-70
2022/04/11 08:25:49;;;;;;;;;;;;;;;;;;5053284;28;19916;-70
2022/04/11 08:28:15;;;;;;;;;;;;;;;;;;5052428;28;19911;-70
2022/04/11 08:30:41;;;;;;;;;;;;;;;;;;5053270;28;19909;-70
2022/04/11 08:33:07;;;;;;;;;;;;;;;;;;5052421;28;20376;-70
2022/04/11 08:35:33;;;;;;;;;;;;;;;;;;5053370;28;19909;-70
2022/04/11 08:37:59;;;;;;;;;;;;;;;;;;5052070;28;19925;-70
2022/04/11 08:40:25;;;;;;;;;;;;;;;;;;5053152;28;19916;-70
2022/04/11 08:42:51;;;;;;;;;;;;;;;;;;5053021;28;19959;-70
2022/04/11 08:45:17;;;;;;;;;;;;;;;;;;5034352;28;19931;-70
2022/04/11 08:47:43;;;;;;;;;;;;;;;;;;5052977;28;19909;-70
2022/04/11 08:50:09;;;;;;;;;;;10.60;1.00;;;;;;5051977;28;20334;-70
2022/04/11 08:52:36;;;;;;;;;;;10.50;1.00;;;;;;5034980;28;20011;-70
2022/04/11 08:55:02;;;;;;;;;;;;;;;;;;5051854;28;19916;-71
2022/04/11 08:57:27;;;;;;;;;;;;;;;;;;5052444;28;19913;-70
2022/04/11 08:59:53;;;;;;;;;;;;;;;;;;5052690;28;20019;-70
2022/04/11 09:02:19;;;;;;;;;;;;;;;;;;5051862;28;19913;-70
2022/04/11 09:04:45;;;;;;;;;;;;;;;;;;5052653;28;19916;-70
2022/04/11 09:07:11;;;;;;;;;;;10.90;1.00;;;;;;5051846;28;19963;-70
2022/04/11 09:09:38;;;;;;;;;;;10.80;1.00;;;;;;5052219;28;19913;-70
2022/04/11 09:12:03;;;;;;;;;;;;;;;;;;5051762;28;19909;-70
2022/04/11 09:14:29;;;;;;;;;;;;;;;;;;5052503;28;19916;-70
2022/04/11 09:16:56;;;;;;;;;;;;;;;;;;5052440;28;20312;-70
2022/04/11 09:19:22;;;;;;;;;;;;;;;;;;5052056;28;19916;-70
2022/04/11 09:21:48;;;;;;;;;;;;;;;;;;5052406;28;20343;-70
2022/04/11 09:24:15;;;;;;;;;;;11.50;1.00;;;;;;5051845;28;19909;-70
2022/04/11 09:26:40;;;;;;;;;;;;;;;;;;5034490;28;20273;-70
2022/04/11 09:29:07;;;;;;;;;;;;;;;;;;5051770;28;19915;-71
2022/04/11 09:31:32;;;;;;;;;;;;;;;;;;5052526;28;19916;-71
2022/04/11 09:33:58;;;;;;;;;;;;;;;;;;5034079;28;19912;-71
2022/04/11 09:36:24;;;;;;;;;;;;;;;;;;5051840;28;19909;-71
2022/04/11 09:38:50;;;;;;;;;;;;;;;;;;5051855;28;19932;-71
2022/04/11 09:41:16;;;;;;;;;;;;;;;;;;5051411;28;19912;-71
2022/04/11 09:43:42;;;;;;;;;;;;;;;;;;5052177;28;20357;-71
2022/04/11 09:46:08;;;;;;;;;;;;;;;;;;5051313;28;19912;-71
2022/04/11 09:48:36;;;;;;;;;;;12.50;1.00;;;;;;5052152;28;20316;-71
2022/04/11 09:51:07;;;;;;;;;;;12.50;1.00;;;;;;5051289;28;19915;-72
2022/04/11 09:53:33;;;;;;;;;;;;;;;;;;5052236;28;19909;-71
2022/04/11 09:55:59;;;;;;;;;;;;;;;;;;5046604;28;19966;-71
2022/04/11 09:58:25;;;;;;;;;;;;;;;;;;5049451;28;19912;-71
2022/04/11 10:00:51;;;;;;;;;;;12.80;1.00;;;;;;5052092;28;19991;-71
2022/04/11 10:03:19;;;;;;;;;;;12.60;1.00;;;;;;5051163;28;19962;-71
2022/04/11 10:05:46;;;;;;;;;;;12.50;1.00;;;;;;5051957;28;19920;-71
2022/04/11 10:08:12;;;;;;;;;;;;;;;;;;5050967;28;20296;-71
2022/04/11 10:10:39;;;;;;;;;;;;;;;;;;5052164;28;19967;-71
2022/04/11 10:13:05;;;;;;;;;;;;;;;;;;5051301;28;19909;-71
2022/04/11 10:15:31;;;;;;;;;;;;;;;;;;5051906;28;19916;-71
2022/04/11 10:17:56;;;;;;;;;;;;;;;;;;5052047;28;20289;-71
2022/04/11 10:20:22;;;;;;;;;;;;;;;;;;5052317;28;19912;-71
2022/04/11 10:22:54;;;;;;;;;;;13.00;1.00;;;;;;5055650;28;19912;-71
2022/04/11 10:25:20;;;;;;;;;;;13.10;1.00;;;;;;5054912;28;20365;-71
2022/04/11 10:27:45;;;;;;;;;;;13.20;1.00;;;;;;5055649;28;19951;-71
2022/04/11 10:30:12;;;;;;;;;;;;;;;;;;5054745;28;19952;-70
2022/04/11 10:32:38;;;;;;;;;;;;;;;;;;5037640;28;20330;-71
2022/04/11 10:35:04;;;;;;;;;;;;;;;;;;5054939;28;19956;-71
2022/04/11 10:37:39;;;;;;;;;;;13.30;1.00;;;;;;5055258;28;19921;-71
2022/04/11 10:40:05;;;;;;;;;;;;;;;;;;5054629;28;20345;-71
2022/04/11 10:42:31;;;;;;;;;;;;;;;;;;5055359;28;19916;-71
2022/04/11 10:44:58;;;;;;;;;;;;;;;;;;5055543;28;19932;-71
2022/04/11 10:47:26;;;;;;;;;;;;;;;;;;5054534;28;19905;-71
2022/04/11 10:49:55;;;;;;;;;;;;;;;;;;5055471;28;19945;-71
2022/04/11 10:52:21;;;;;;;;;;;;;;;;;;5054690;28;19908;-71
2022/04/11 10:54:47;;;;;;;;;;;;;;;;;;5055123;28;20345;-70
2022/04/11 10:57:13;;;;;;;;;;;;;;;;;;5054199;28;19916;-71
2022/04/11 10:59:39;;;;;;;;;;;;;;;;;;5054979;28;19962;-71
2022/04/11 11:02:09;;;;;;;;;;;;;;;;;;5054525;28;20361;-71
2022/04/11 11:04:34;;;;;;;;;;;;;;;;;;5054967;28;19909;-71
2022/04/11 11:07:00;;;;;;;;;;;;;;;;;;5036854;28;19970;-71
2022/04/11 11:09:27;;;;;;;;;;;;;;;;;;5054310;28;19905;-71
2022/04/11 11:11:52;;;;;;;;;;;;;;;;;;5055083;28;19916;-71
2022/04/11 11:14:18;;;;;;;;;;;;;;;;;;5053936;28;19912;-71
2022/04/11 11:16:44;;;;;;;;;;;;;;;;;;5036785;28;20369;-71
2022/04/11 11:19:10;;;;;;;;;;;;;;;;;;5053831;28;19919;-71
2022/04/11 11:21:37;;;;;;;;;;;;;;;;;;5054585;28;19909;-71
2022/04/11 11:24:08;;;;;;;;;;;;;;;;;;5054872;28;20303;-71
2022/04/11 11:26:34;;;;;;;;;;;;;;;;;;5054576;28;19915;-71
2022/04/11 11:29:00;;;;;;;;;;;;;;;;;;5035880;28;20272;-71
2022/04/11 11:31:26;;;;;;;;;;;;;;;;;;5033412;28;19905;-71
2022/04/11 11:33:51;;;;;;;;;;;;;;;;;;5034452;28;19938;-71
2022/04/11 11:36:17;;;;;;;;;;;;;;;;;;5033578;28;20105;-71
2022/04/11 11:38:43;;;;;;;;;;;;;;;;;;5053809;28;19925;-71
2022/04/11 11:41:09;;;;;;;;;;;;;;;;;;5053496;28;20303;-72
2022/04/11 11:43:36;;;;;;;;;;;;;;;;;;5054244;28;20003;-71
2022/04/11 11:46:02;;;;;;;;;;;;;;;;;;5054152;28;19909;-71
2022/04/11 11:48:28;;;;;;;;;;;;;;;;;;5053352;28;20503;-71
2022/04/11 11:50:57;;;;;;;;;;;;;;;;;;5053942;28;19909;-72
2022/04/11 11:53:23;;;;;;;;;;;;;;;;;;5049434;28;19912;-72
2022/04/11 11:55:49;;;;;;;;;;;;;;;;;;5050622;28;20396;-71
2022/04/11 11:58:18;;;;;;;;;;;;;;;;;;5052916;28;19950;-71
2022/04/11 12:00:44;;;;;;;;;;;;;;;;;;5059698;28;19920;-71
2022/04/11 12:05:55;;;;;;;;;;;;;;;;;;5056012;28;20028;-71
2022/04/11 12:08:20;;;;;;;;;;;;;;;;;;5059890;28;19921;-72
2022/04/11 12:10:46;;;;;;;;;;;;;;;;;;5060557;28;19927;-72
2022/04/11 12:13:12;;;;;;;;;;;;;;;;;;5063446;28;19931;-72
2022/04/11 12:15:38;;;;;;;;;;;;;;;;;;5070287;28;20357;-72
2022/04/11 12:18:04;;;;;;;;;;;;;;;;;;5069704;28;19923;-71
2022/04/11 12:20:30;;;;;;;;;;;;;;;;;;5069390;28;19908;-71
2022/04/11 12:22:56;;;;;;;;;;;;;;;;;;5060073;28;19912;-69
2022/04/11 12:25:22;;;;;;;;;;;;;;;;;;5049531;28;19923;-71
2022/04/11 12:27:49;;;;;;;;;;;;;;;;;;5050121;28;20300;-71
2022/04/11 12:30:15;;;;;;;;;;;;;;;;;;5071489;28;20339;-71
2022/04/11 12:32:41;;;;;;;;;;;;;;;;;;5065875;28;19913;-71
2022/04/11 12:35:07;;;;;;;;;;;;;;;;;;5049873;28;19956;-71
2022/04/11 12:37:33;;;;;;;;;;;;;;;;;;5048805;28;19925;-71
2022/04/11 12:40:01;;;;;;;;;;;;;;;;;;5044237;28;19917;-72
2022/04/11 12:42:28;;;;;;;;;;;;;;;;;;5039414;28;19921;-71
2022/04/11 12:44:54;;;;;;;;;;;;;;;;;;5049541;28;20612;-72
2022/04/11 12:47:20;;;;;;;;;;;;;;;;;;5048936;28;19966;-73
2022/04/11 12:49:46;;;;;;;;;;;;;;;;;;5061293;28;19938;-69
2022/04/11 12:52:12;;;;;;;;;;;;;;;;;;5068952;28;20376;-71
2022/04/11 12:54:38;;;;;;;;;;;;;;;;;;5034691;28;19916;-69
2022/04/11 12:57:03;;;;;;;;;;;;;;;;;;5052944;28;19909;-72
2022/04/11 12:59:29;;;;;;;;;;;;;;;;;;5053348;28;20428;-71
2022/04/11 13:01:55;;;;;;;;;;;;;;;;;;5066772;28;20007;-72
2022/04/11 13:04:21;;;;;;;;;;;;;;;;;;5063135;28;19970;-68
2022/04/11 13:06:47;;;;;;;;;;;;;;;;;;5054190;28;19909;-72
2022/04/11 13:09:13;;;;;;;;;;;;;;;;;;5053590;28;19930;-70
2022/04/11 13:11:39;;;;;;;;;;;;;;;;;;5054269;28;19917;-70
2022/04/11 13:14:05;;;;;;;;;;;;;;;;;;5057458;28;20297;-71
2022/04/11 13:19:16;;;;;;;;;;;;;;;;;;5028356;28;19967;-70
2022/04/11 13:21:42;;;;;;;;;;;;;;;;;;5029328;28;19940;-71
2022/04/11 13:24:08;;;;;;;;;;;;;;;;;;5039830;28;19913;-71
2022/04/11 13:26:33;;;;;;;;;;;;;;;;;;5048430;28;20079;-71
2022/04/11 13:28:59;;;;;;;;;;;;;;;;;;5049190;28;19913;-71
2022/04/11 13:31:27;;;;;;;;;;;;;;;;;;5047575;28;19949;-70
2022/04/11 13:33:52;;;;;;;;;;;;;;;;;;5052507;28;19963;-70
2022/04/11 13:36:18;;;;;;;;;;;;;;;;;;5051476;28;20319;-69
2022/04/11 13:38:44;;;;;;;;;;;;;;;;;;5035428;28;20016;-70
2022/04/11 13:41:10;;;;;;;;;;;;;;;;;;5032300;28;20286;-70
2022/04/11 13:43:36;;;;;;;;;;;;;;;;;;5031574;28;19913;-70
2022/04/11 13:46:02;;;;;;;;;;;;;;;;;;5032250;28;19916;-69
2022/04/11 13:48:28;;;;;;;;;;;;;;;;;;5031515;28;20332;-70
2022/04/11 13:50:54;;;;;;;;;;;;;;;;;;5032511;28;19909;-69
2022/04/11 13:53:20;;;;;;;;;;;;;;;;;;5031842;28;19909;-62
2022/04/11 13:55:46;;;;;;;;;;;;;;;;;;5055973;28;20358;-62
2022/04/11 13:58:12;;;;;;;;;;;;;;;;;;5041613;28;19920;-63
2022/04/11 14:00:41;;;;;;;;;;;;;;;;;;5035930;28;19913;-65
2022/04/11 14:03:07;;;;;;;;;;;;;;;;;;5043236;28;19920;-64
2022/04/11 14:05:33;;;;;;;;;;;;;;;;;;5055170;28;20004;-63
2022/04/11 14:07:59;;;;;;;;;;;;;;;;;;5056242;28;19921;-63
2022/04/11 14:10:25;;;;;;;;;;;;;;;;;;5055434;28;20003;-64
2022/04/11 14:12:51;;;;;;;;;;;;;;;;;;5055895;28;19909;-64
2022/04/11 14:15:17;;;;;;;;;;;;;;;;;;5055286;28;19908;-65
2022/04/11 14:17:43;;;;;;;;;;;;;;;;;;5055879;28;19948;-64
2022/04/11 14:20:09;;;;;;;;;;;;;;;;;;5037916;28;19998;-64
2022/04/11 14:22:35;;;;;;;;;;;;;;;;;;5042669;28;20005;-69
2022/04/11 14:25:01;;;;;;;;;;;;;;;;;;5043954;28;19991;-64
2022/04/11 14:27:27;;;;;;;;;;;;;;;;;;5034983;28;20007;-63
2022/04/11 14:29:53;;;;;;;;;;;;;;;;;;5035624;28;20374;-65
2022/04/11 14:32:18;;;;;;;;;;;;;;;;;;5037555;28;19917;-66
2022/04/11 14:34:44;;;;;;;;;;;;;;;;;;5055599;28;20327;-64
2022/04/11 14:37:10;;;;;;;;;;;;;;;;;;5052727;28;19921;-63
2022/04/11 14:39:38;;;;;;;;;;;;;;;;;;5050753;28;19913;-66
2022/04/11 14:42:05;;;;;;;;;;;;;;;;;;5054341;28;20003;-65
2022/04/11 14:44:30;;;;;;;;;;;;;;;;;;5053283;28;19912;-69
2022/04/11 14:46:56;;;;;;;;;;;;;;;;;;5036717;28;19913;-65
2022/04/11 14:49:22;;;;;;;;;;;;;;;;;;5053653;28;19931;-65
2022/04/11 14:51:48;;;;;;;;;;;;;;;;;;5053865;28;19913;-69
2022/04/11 14:54:14;;;;;;;;;;;;;;;;;;5053940;28;19916;-73
2022/04/11 14:56:40;;;;;;;;;;;;;;;;;;5054539;28;19909;-71
2022/04/11 14:59:06;;;;;;;;;;;;;;;;;;5054916;28;19962;-70
2022/04/11 15:01:32;;;;;;;;;;;;;;;;;;5054137;28;19909;-70
2022/04/11 15:03:58;;;;;;;;;;;;;;;;;;5055036;28;19917;-70
2022/04/11 15:06:24;;;;;;;;;;;;;;;;;;5053408;28;19958;-72
2022/04/11 15:08:50;;;;;;;;;;;;;;;;;;5055018;28;20012;-70
2022/04/11 15:11:16;;;;;;;;;;;;;;;;;;5054681;28;19922;-72
2022/04/11 15:13:43;;;;;;;;;;;17.40;1.00;;;;;;5054330;28;19917;-71
2022/04/11 15:16:09;;;;;;;;;;;;;;;;;;5054710;28;19913;-69
2022/04/11 15:18:35;;;;;;;;;;;;;;;;;;5053772;28;20346;-71
2022/04/11 15:21:01;;;;;;;;;;;17.20;1.00;;;;;;5054638;28;19960;-72
2022/04/11 15:23:27;;;;;;;;;;;;;;;;;;5053577;28;19936;-72
2022/04/11 15:25:53;;;;;;;;;;;;;;;;;;5054335;28;19978;-71
2022/04/11 15:28:19;;;;;;;;;;;;;;;;;;5053957;28;19954;-73
2022/04/11 15:30:45;;;;;;;;;;;;;;;;;;5054299;28;19908;-71
2022/04/11 15:33:11;;;;;;;;;;;;;;;;;;5054425;28;19916;-71
2022/04/11 15:35:37;;;;;;;;;;;;;;;;;;5053639;28;20013;-74
2022/04/11 15:38:03;;;;;;;;;;;;;;;;;;5054018;28;19924;-74
2022/04/11 15:40:28;;;;;;;;;;;;;;;;;;5053553;28;19959;-74
2022/04/11 15:42:54;;;;;;;;;;;;;;;;;;5054289;28;19909;-74
2022/04/11 15:45:22;;;;;;;;;;;17.20;1.00;;;;;;5035749;28;19912;-76
2022/04/11 15:47:48;;;;;;;;;;;;;;;;;;5054141;28;19959;-74
2022/04/11 15:50:14;;;;;;;;;;;;;;;;;;5054135;28;19908;-74
2022/04/11 15:52:39;;;;;;;;;;;;;;;;;;5053321;28;19993;-74
2022/04/11 15:55:05;;;;;;;;;;;;;;;;;;5054137;28;20262;-73
2022/04/11 15:57:31;;;;;;;;;;;;;;;;;;5053105;28;19916;-73
2022/04/11 15:59:57;;;;;;;;;;;;;;;;;;5053939;28;19916;-74
2022/04/11 16:02:23;;;;;;;;;;;;;;;;;;5035145;28;20291;-75
2022/04/11 16:04:49;;;;;;;;;;;16.70;1.00;;;;;;5053925;28;19974;-74
2022/04/11 16:07:14;;;;;;;;;;;16.80;1.00;;;;;;5053932;28;20346;-74
2022/04/11 16:09:40;;;;;;;;;;;;;;;;;;5052811;28;19912;-74
2022/04/11 16:12:06;;;;;;;;;;;;;;;;;;5053745;28;19948;-73
2022/04/11 16:14:32;;;;;;;;;;;;;;;;;;5052904;28;19932;-73
2022/04/11 16:16:58;;;;;;;;;;;;;;;;;;5053227;28;19920;-73
2022/04/11 16:19:24;;;;;;;;;;;;;;;;;;5052210;28;19970;-74
2022/04/11 16:21:50;;;;;;;;;;;;;;;;;;5053499;28;20064;-73
2022/04/11 16:24:16;;;;;;;;;;;;;;;;;;5053100;28;19909;-74
2022/04/11 16:26:41;;;;;;;;;;;;;;;;;;5052699;28;19909;-73